Time;durP1;ratioP1;P1;durP2;ratioP2;P2;SDS_P1;SDS_P2;PMS_P1;PMS_P2;Temp;Humidity;BMP_temperature;BMP_pressure;BME280_temperature;BME280_humidity;BME280_pressure;Samples;Min_cycle;Max_cycle;Signal;HPM_P1;HPM_P2
2022/10/23 18:09:57;;;;;;;0.10;0.10;;;18.10;99.90;;;;;;6190591;22;1383378;-81
2022/10/23 18:12:24;;;;;;;0.10;0.10;;;18.10;99.90;;;;;;6209885;23;20450;-81
2022/10/23 18:14:51;;;;;;;0.10;0.10;;;18.10;99.90;;;;;;6210549;23;20434;-81
2022/10/23 18:17:18;;;;;;;0.10;0.10;;;18.10;99.90;;;;;;6209027;23;20736;-82
2022/10/23 18:19:45;;;;;;;0.10;0.10;;;18.10;99.90;;;;;;6208485;23;20906;-80
2022/10/23 18:22:12;;;;;;;0.20;0.20;;;18.10;99.90;;;;;;6210085;23;20398;-81
2022/10/23 18:24:38;;;;;;;0.10;0.10;;;17.90;99.90;;;;;;6209069;23;20436;-82
2022/10/23 18:27:05;;;;;;;0.10;0.10;;;17.80;99.90;;;;;;6209399;23;20414;-82
2022/10/23 18:29:32;;;;;;;0.28;0.20;;;17.80;99.90;;;;;;6209019;22;20381;-82
2022/10/23 18:31:59;;;;;;;0.10;0.10;;;17.70;99.90;;;;;;6209829;23;20390;-82
2022/10/23 18:34:26;;;;;;;0.20;0.20;;;17.70;99.90;;;;;;6210717;22;20861;-81
2022/10/23 18:36:54;;;;;;;0.30;0.20;;;17.70;99.90;;;;;;6209062;23;20377;-82
2022/10/23 18:39:23;;;;;;;0.22;0.20;;;17.60;99.90;;;;;;6209927;23;20708;-82
2022/10/23 18:41:53;;;;;;;0.20;0.20;;;17.60;99.90;;;;;;6208621;23;20373;-82
2022/10/23 18:44:21;;;;;;;0.20;0.20;;;17.60;99.90;;;;;;6183065;23;20387;-81
2022/10/23 18:46:49;;;;;;;0.20;0.20;;;17.50;99.90;;;;;;6208133;22;20366;-80
2022/10/23 18:49:18;;;;;;;0.20;0.20;;;17.50;99.90;;;;;;6208253;23;20461;-81
2022/10/23 18:51:45;;;;;;;0.20;0.20;;;17.30;99.90;;;;;;6184218;22;20882;-81
2022/10/23 18:54:13;;;;;;;0.20;0.20;;;17.30;99.90;;;;;;6210123;23;20378;-82
2022/10/23 18:56:41;;;;;;;0.20;0.20;;;17.30;99.90;;;;;;6207626;22;20470;-81
2022/10/23 18:59:13;;;;;;;0.20;0.20;;;17.20;99.90;;;;;;6210168;22;20703;-82
2022/10/23 19:01:40;;;;;;;0.10;0.10;;;17.20;99.90;;;;;;6206995;22;20386;-81
2022/10/23 19:04:10;;;;;;;0.10;0.10;;;17.20;99.90;;;;;;6209257;23;20768;-81
2022/10/23 19:06:38;;;;;;;0.10;0.10;;;17.20;99.90;;;;;;6210414;22;20028;-81
2022/10/23 19:09:07;;;;;;;0.10;0.10;;;17.20;99.90;;;;;;6212653;22;20477;-81
2022/10/23 19:11:34;;;;;;;0.10;0.10;;;17.10;99.90;;;;;;6183950;22;20865;-81
2022/10/23 19:14:01;;;;;;;;;;;17.20;99.90;;;;;;6213353;22;20279;-82
2022/10/23 19:16:36;;;;;;;;;;;17.20;99.90;;;;;;6211044;22;19916;-82
2022/10/23 19:19:23;;;;;;;;;;;17.30;99.90;;;;;;6211964;23;19999;-82
2022/10/23 19:21:50;;;;;;;;;;;17.30;99.90;;;;;;6210835;22;19947;-82
2022/10/23 19:24:22;;;;;;;;;;;17.30;99.90;;;;;;6211752;23;19920;-81
2022/10/23 19:26:49;;;;;;;;;;;17.30;99.90;;;;;;6186068;22;20027;-81
2022/10/23 19:29:18;;;;;;;;;;;17.30;99.90;;;;;;6211171;23;19987;-82
2022/10/23 19:31:47;;;;;;;;;;;17.30;99.90;;;;;;6211727;22;20030;-82
2022/10/23 19:34:15;;;;;;;;;;;17.30;99.90;;;;;;6213297;23;19926;-81
2022/10/23 19:36:42;;;;;;;;;;;17.30;99.90;;;;;;6212943;22;20345;-81
2022/10/23 19:39:09;;;;;;;;;;;17.10;99.90;;;;;;6213010;23;20202;-81
2022/10/23 19:41:35;;;;;;;0.13;0.10;;;17.10;99.90;;;;;;6210971;22;20248;-81
2022/10/23 19:44:02;;;;;;;;;;;17.10;99.90;;;;;;6212967;23;20032;-81
2022/10/23 19:46:29;;;;;;;;;;;17.10;99.90;;;;;;6211985;22;20249;-80
2022/10/23 19:48:56;;;;;;;;;;;17.10;99.90;;;;;;6214518;22;19916;-81
2022/10/23 19:51:22;;;;;;;;;;;17.10;99.90;;;;;;6212942;23;19920;-81
2022/10/23 19:53:49;;;;;;;;;;;17.10;99.90;;;;;;6212607;22;19923;-81
2022/10/23 19:56:19;;;;;;;;;;;17.00;99.90;;;;;;6213428;23;19923;-81
2022/10/23 19:58:46;;;;;;;;;;;17.00;99.90;;;;;;6212740;22;20289;-81
2022/10/23 20:01:13;;;;;;;;;;;17.00;99.90;;;;;;6213234;23;19951;-81
2022/10/23 20:03:41;;;;;;;;;;;17.00;99.90;;;;;;6212584;22;20330;-80
2022/10/23 20:06:10;;;;;;;;;;;17.00;99.90;;;;;;6211226;23;19936;-81
2022/10/23 20:08:37;;;;;;;;;;;17.00;99.90;;;;;;6212287;22;19942;-81
2022/10/23 20:11:05;;;;;;;;;;;17.00;99.90;;;;;;6213239;23;20003;-82
2022/10/23 20:13:31;;;;;;;;;;;16.90;99.90;;;;;;6212581;22;20289;-81
2022/10/23 20:15:59;;;;;;;;;;;17.00;99.90;;;;;;6214558;22;19990;-82
2022/10/23 20:18:26;;;;;;;;;;;17.00;99.90;;;;;;6213464;23;20284;-82
2022/10/23 20:20:53;;;;;;;;;;;16.90;99.90;;;;;;6212368;22;19915;-82
2022/10/23 20:23:19;;;;;;;;;;;16.90;99.90;;;;;;6212877;23;19930;-81
2022/10/23 20:25:46;;;;;;;;;;;16.90;99.90;;;;;;6211390;22;19950;-81
2022/10/23 20:28:14;;;;;;;;;;;16.90;99.90;;;;;;6211987;23;20303;-82
2022/10/23 20:30:41;;;;;;;;;;;16.90;99.90;;;;;;6211631;22;19916;-81
2022/10/23 20:33:08;;;;;;;;;;;16.90;99.90;;;;;;6212618;23;19916;-81
2022/10/23 20:35:40;;;;;;;;;;;16.90;99.90;;;;;;6213340;22;19923;-81
2022/10/23 20:38:07;;;;;;;;;;;16.90;99.90;;;;;;6214450;23;19938;-81
2022/10/23 20:40:34;;;;;;;;;;;17.00;99.90;;;;;;6212377;22;19999;-82
2022/10/23 20:43:01;;;;;;;;;;;17.00;99.90;;;;;;6212709;23;19942;-82
2022/10/23 20:45:28;;;;;;;;;;;17.00;99.90;;;;;;6214007;23;19943;-82
2022/10/23 20:47:55;;;;;;;;;;;17.00;99.90;;;;;;6213286;22;19955;-82
2022/10/23 20:50:22;;;;;;;;;;;17.00;99.90;;;;;;6214190;23;20256;-81
2022/10/23 20:52:49;;;;;;;;;;;17.00;99.90;;;;;;6213258;22;19966;-81
2022/10/23 20:55:17;;;;;;;;;;;17.00;99.90;;;;;;6213897;23;20260;-81
2022/10/23 20:57:43;;;;;;;;;;;17.00;99.90;;;;;;6212902;22;19919;-82
2022/10/23 21:00:11;;;;;;;;;;;17.00;99.90;;;;;;6213914;23;19916;-82
2022/10/23 21:02:38;;;;;;;;;;;17.00;99.90;;;;;;6213108;22;19998;-81
2022/10/23 21:05:05;;;;;;;;;;;17.00;99.90;;;;;;6213576;23;19926;-81
2022/10/23 21:07:33;;;;;;;;;;;16.90;99.90;;;;;;6189106;23;19922;-82
2022/10/23 21:10:00;;;;;;;;;;;16.90;99.90;;;;;;6188271;23;19990;-82
2022/10/23 21:12:27;;;;;;;;;;;16.90;99.90;;;;;;6189673;23;19916;-82
2022/10/23 21:14:54;;;;;;;;;;;16.90;99.90;;;;;;6209819;23;19954;-81
2022/10/23 21:17:21;;;;;;;;;;;16.90;99.90;;;;;;6211845;23;19916;-81
2022/10/23 21:19:47;;;;;;;;;;;16.80;99.90;;;;;;6211441;23;20402;-81
2022/10/23 21:22:14;;;;;;;;;;;16.70;99.90;;;;;;6212352;23;19966;-81
2022/10/23 21:24:41;;;;;;;;;;;16.70;99.90;;;;;;6212056;23;19938;-81
2022/10/23 21:27:07;;;;;;;;;;;16.70;99.90;;;;;;6212994;23;20010;-81
2022/10/23 21:29:34;;;;;;;;;;;16.80;99.90;;;;;;6212828;23;20427;-82
2022/10/23 21:32:01;;;;;;;;;;;16.80;99.90;;;;;;6198518;23;19926;-81
2022/10/23 21:34:28;;;;;;;;;;;16.80;99.90;;;;;;6212752;23;19987;-81
2022/10/23 21:36:55;;;;;;;;;;;16.90;99.90;;;;;;6212046;23;19943;-82
2022/10/23 21:39:40;;;;;;;;;;;16.90;99.90;;;;;;6213933;23;19920;-81
2022/10/23 21:42:07;;;;;;;;;;;16.90;99.90;;;;;;6194677;23;20257;-82
2022/10/23 21:44:34;;;;;;;;;;;16.90;99.90;;;;;;6207672;23;19994;-81
2022/10/23 21:47:01;;;;;;;;;;;16.80;99.90;;;;;;6211493;23;20281;-81
2022/10/23 21:49:27;;;;;;;;;;;16.80;99.90;;;;;;6211227;23;19916;-81
2022/10/23 21:51:54;;;;;;;;;;;16.80;99.90;;;;;;6210174;23;19922;-81
2022/10/23 21:54:21;;;;;;;;;;;16.80;99.90;;;;;;6210795;23;19923;-82
2022/10/23 21:56:49;;;;;;;;;;;16.80;99.90;;;;;;6186825;23;19996;-81
2022/10/23 21:59:17;;;;;;;;;;;16.80;99.90;;;;;;6192214;23;19987;-81
2022/10/23 22:01:44;;;;;;;;;;;16.80;99.90;;;;;;6207249;23;20016;-81
2022/10/23 22:04:16;;;;;;;;;;;16.80;99.90;;;;;;6193114;23;20296;-81
2022/10/23 22:06:43;;;;;;;;;;;16.70;99.90;;;;;;6208409;23;19915;-81
2022/10/23 22:09:14;;;;;;;;;;;16.70;99.90;;;;;;6200695;23;19947;-81
2022/10/23 22:11:41;;;;;;;;;;;16.70;99.90;;;;;;6176818;23;19923;-81
2022/10/23 22:14:08;;;;;;;;;;;16.80;99.90;;;;;;6206666;23;19916;-81
2022/10/23 22:16:34;;;;;;;;;;;16.80;99.90;;;;;;6177172;23;19924;-81
2022/10/23 22:19:01;;;;;;;;;;;16.70;99.90;;;;;;6180448;23;19923;-81
2022/10/23 22:21:29;;;;;;;;;;;16.70;99.90;;;;;;6183454;23;19955;-81
2022/10/23 22:23:56;;;;;;;;;;;16.70;99.90;;;;;;6179603;23;19921;-81
2022/10/23 22:26:23;;;;;;;;;;;16.70;99.90;;;;;;6193745;23;19920;-81
2022/10/23 22:28:50;;;;;;;;;;;16.70;99.90;;;;;;6156285;23;19920;-81
2022/10/23 22:31:18;;;;;;;;;;;16.70;99.90;;;;;;6194569;23;19916;-81
2022/10/23 22:33:45;;;;;;;;;;;16.70;99.90;;;;;;6193653;23;19920;-81
2022/10/23 22:36:12;;;;;;;;;;;16.70;99.90;;;;;;6176633;23;19996;-81
2022/10/23 22:38:39;;;;;;;;;;;16.70;99.90;;;;;;6176618;23;19920;-81
2022/10/23 22:41:06;;;;;;;;;;;16.70;99.90;;;;;;6181531;23;20249;-81
2022/10/23 22:43:33;;;;;;;;;;;16.60;99.90;;;;;;6195214;23;19920;-81
2022/10/23 22:46:04;;;;;;;;;;;16.60;99.90;;;;;;6182253;23;20260;-81
2022/10/23 22:48:31;;;;;;;;;;;16.70;99.90;;;;;;6177694;23;19916;-81
2022/10/23 22:50:58;;;;;;;;;;;16.70;99.90;;;;;;6180313;23;20231;-81
2022/10/23 22:53:24;;;;;;;;;;;16.70;99.90;;;;;;6182897;23;20260;-81
2022/10/23 22:55:52;;;;;;;;;;;16.70;99.90;;;;;;6179012;23;19917;-81
2022/10/23 22:58:19;;;;;;;;;;;16.70;99.90;;;;;;6195270;23;19923;-81
2022/10/23 23:00:46;;;;;;;;;;;16.70;99.90;;;;;;6182275;23;20337;-81
2022/10/23 23:03:12;;;;;;;;;;;16.70;99.90;;;;;;6177431;23;19944;-82
2022/10/23 23:05:40;;;;;;;;;;;16.70;99.90;;;;;;6178330;23;19916;-81
2022/10/23 23:08:07;;;;;;;;;;;16.70;99.90;;;;;;6179299;23;19939;-82
2022/10/23 23:10:34;;;;;;;;;;;16.70;99.90;;;;;;6179571;23;19948;-82
2022/10/23 23:13:00;;;;;;;;;;;16.70;99.90;;;;;;6181456;23;19935;-82
2022/10/23 23:15:27;;;;;;;;;;;16.70;99.90;;;;;;6184846;23;19916;-82
2022/10/23 23:17:54;;;;;;;;;;;16.70;99.90;;;;;;6184152;23;19927;-81
2022/10/23 23:20:21;;;;;;;;;;;16.60;99.90;;;;;;6184577;23;19987;-82
2022/10/23 23:22:47;;;;;;;;;;;16.50;99.90;;;;;;6183822;23;19936;-82
2022/10/23 23:25:14;;;;;;;;;;;16.50;99.90;;;;;;6184692;23;19920;-81
2022/10/23 23:27:41;;;;;;;;;;;16.50;99.90;;;;;;6184972;23;19986;-81
2022/10/23 23:30:08;;;;;;;;;;;16.50;99.90;;;;;;6183267;23;19922;-81
2022/10/23 23:32:35;;;;;;;;;;;16.50;99.90;;;;;;6184849;23;19920;-81
2022/10/23 23:35:02;;;;;;;;;;;16.40;99.90;;;;;;6185285;23;19916;-81
2022/10/23 23:37:28;;;;;;;;;;;16.40;99.90;;;;;;6184446;23;20396;-81
2022/10/23 23:39:55;;;;;;;;;;;16.40;99.90;;;;;;6184098;23;19944;-81
2022/10/23 23:42:22;;;;;;;;;;;16.40;99.90;;;;;;6184399;23;19960;-81
2022/10/23 23:44:48;;;;;;;;;;;16.50;99.90;;;;;;6183581;23;19922;-81
2022/10/23 23:47:35;;;;;;;;;;;16.50;99.90;;;;;;6184611;23;20288;-81
2022/10/23 23:50:03;;;;;;;;;;;16.50;99.90;;;;;;6183846;23;20172;-81
2022/10/23 23:52:29;;;;;;;;;;;16.40;99.90;;;;;;6184719;23;20329;-81
2022/10/23 23:54:56;;;;;;;;;;;16.40;99.90;;;;;;6184050;23;20000;-81
2022/10/23 23:57:23;;;;;;;;;;;16.40;99.90;;;;;;6184333;23;19916;-81
2022/10/23 23:59:49;;;;;;;;;;;16.40;99.90;;;;;;6183485;23;20253;-82
